sensor_id;sensor_type;location;lat;lon;timestamp;P1;durP1;ratioP1;P2;durP2;ratioP2
24407;SDS011;12542;50.924;4.516;2024-03-23T00:53:29;17.30;;;4.75;;
24407;SDS011;12542;50.924;4.516;2024-03-23T00:55:55;16.05;;;3.20;;
24407;SDS011;12542;50.924;4.516;2024-03-23T00:58:20;11.57;;;3.13;;
24407;SDS011;12542;50.924;4.516;2024-03-23T01:00:46;13.90;;;3.35;;
24407;SDS011;12542;50.924;4.516;2024-03-23T01:03:12;12.57;;;2.90;;
24407;SDS011;12542;50.924;4.516;2024-03-23T01:05:37;12.48;;;3.58;;
24407;SDS011;12542;50.924;4.516;2024-03-23T01:08:03;9.65;;;2.83;;
24407;SDS011;12542;50.924;4.516;2024-03-23T01:10:29;14.60;;;3.05;;
24407;SDS011;12542;50.924;4.516;2024-03-23T01:12:55;8.77;;;3.25;;
24407;SDS011;12542;50.924;4.516;2024-03-23T01:15:23;12.63;;;2.95;;
24407;SDS011;12542;50.924;4.516;2024-03-23T01:17:51;11.02;;;3.13;;
24407;SDS011;12542;50.924;4.516;2024-03-23T01:20:17;11.95;;;2.95;;
24407;SDS011;12542;50.924;4.516;2024-03-23T01:22:43;11.88;;;3.00;;
24407;SDS011;12542;50.924;4.516;2024-03-23T01:25:08;11.82;;;3.47;;
24407;SDS011;12542;50.924;4.516;2024-03-23T01:27:34;9.68;;;3.03;;
24407;SDS011;12542;50.924;4.516;2024-03-23T01:30:00;15.07;;;3.45;;
24407;SDS011;12542;50.924;4.516;2024-03-23T01:32:28;8.05;;;2.85;;
24407;SDS011;12542;50.924;4.516;2024-03-23T01:34:53;11.63;;;2.97;;
24407;SDS011;12542;50.924;4.516;2024-03-23T01:37:19;9.18;;;3.38;;
24407;SDS011;12542;50.924;4.516;2024-03-23T01:39:45;12.93;;;3.15;;
24407;SDS011;12542;50.924;4.516;2024-03-23T01:42:10;8.00;;;2.97;;
24407;SDS011;12542;50.924;4.516;2024-03-23T01:44:36;6.47;;;2.63;;
24407;SDS011;12542;50.924;4.516;2024-03-23T01:47:02;7.22;;;2.80;;
24407;SDS011;12542;50.924;4.516;2024-03-23T01:49:28;7.35;;;3.30;;
24407;SDS011;12542;50.924;4.516;2024-03-23T01:51:54;9.82;;;3.28;;
24407;SDS011;12542;50.924;4.516;2024-03-23T01:54:20;11.57;;;3.20;;
24407;SDS011;12542;50.924;4.516;2024-03-23T01:56:46;11.88;;;3.28;;
24407;SDS011;12542;50.924;4.516;2024-03-23T01:59:14;10.75;;;2.95;;
24407;SDS011;12542;50.924;4.516;2024-03-23T02:01:40;13.10;;;3.88;;
24407;SDS011;12542;50.924;4.516;2024-03-23T02:04:06;11.50;;;3.20;;
24407;SDS011;12542;50.924;4.516;2024-03-23T02:06:35;13.75;;;3.80;;
24407;SDS011;12542;50.924;4.516;2024-03-23T02:09:00;10.88;;;2.65;;
24407;SDS011;12542;50.924;4.516;2024-03-23T02:11:26;15.82;;;3.55;;
24407;SDS011;12542;50.924;4.516;2024-03-23T02:13:52;16.73;;;4.32;;
24407;SDS011;12542;50.924;4.516;2024-03-23T02:16:18;10.93;;;5.00;;
24407;SDS011;12542;50.924;4.516;2024-03-23T02:18:43;17.23;;;6.00;;
24407;SDS011;12542;50.924;4.516;2024-03-23T02:21:09;20.38;;;6.32;;
24407;SDS011;12542;50.924;4.516;2024-03-23T02:23:35;16.85;;;5.32;;
24407;SDS011;12542;50.924;4.516;2024-03-23T02:26:00;14.80;;;4.95;;
24407;SDS011;12542;50.924;4.516;2024-03-23T02:28:28;17.88;;;5.70;;
24407;SDS011;12542;50.924;4.516;2024-03-23T02:30:54;15.55;;;6.10;;
24407;SDS011;12542;50.924;4.516;2024-03-23T02:33:20;13.50;;;6.10;;
24407;SDS011;12542;50.924;4.516;2024-03-23T02:35:49;14.60;;;5.40;;
24407;SDS011;12542;50.924;4.516;2024-03-23T02:38:14;20.17;;;6.20;;
24407;SDS011;12542;50.924;4.516;2024-03-23T02:40:40;13.73;;;6.25;;
24407;SDS011;12542;50.924;4.516;2024-03-23T02:43:06;15.52;;;5.70;;
24407;SDS011;12542;50.924;4.516;2024-03-23T02:45:31;19.33;;;6.13;;
24407;SDS011;12542;50.924;4.516;2024-03-23T02:47:57;15.55;;;5.70;;
24407;SDS011;12542;50.924;4.516;2024-03-23T02:50:23;18.15;;;5.95;;
24407;SDS011;12542;50.924;4.516;2024-03-23T02:52:48;18.27;;;6.22;;
24407;SDS011;12542;50.924;4.516;2024-03-23T02:55:16;18.88;;;6.18;;
24407;SDS011;12542;50.924;4.516;2024-03-23T02:57:42;19.55;;;5.43;;
24407;SDS011;12542;50.924;4.516;2024-03-23T03:00:08;16.20;;;5.72;;
24407;SDS011;12542;50.924;4.516;2024-03-23T03:02:35;21.27;;;5.95;;
24407;SDS011;12542;50.924;4.516;2024-03-23T03:05:02;17.13;;;5.40;;
24407;SDS011;12542;50.924;4.516;2024-03-23T03:07:30;19.00;;;5.43;;
24407;SDS011;12542;50.924;4.516;2024-03-23T03:09:56;17.67;;;5.95;;
24407;SDS011;12542;50.924;4.516;2024-03-23T03:12:21;12.73;;;5.00;;
24407;SDS011;12542;50.924;4.516;2024-03-23T03:14:47;17.55;;;5.13;;
24407;SDS011;12542;50.924;4.516;2024-03-23T03:17:13;12.48;;;5.60;;
24407;SDS011;12542;50.924;4.516;2024-03-23T03:19:39;18.60;;;5.15;;
24407;SDS011;12542;50.924;4.516;2024-03-23T03:22:05;18.65;;;5.70;;
24407;SDS011;12542;50.924;4.516;2024-03-23T03:24:31;21.42;;;5.53;;
24407;SDS011;12542;50.924;4.516;2024-03-23T03:26:56;25.40;;;6.10;;
24407;SDS011;12542;50.924;4.516;2024-03-23T03:29:25;22.95;;;5.57;;
24407;SDS011;12542;50.924;4.516;2024-03-23T03:31:50;16.63;;;5.80;;
24407;SDS011;12542;50.924;4.516;2024-03-23T03:34:19;18.80;;;4.97;;
24407;SDS011;12542;50.924;4.516;2024-03-23T03:36:44;17.50;;;5.05;;
24407;SDS011;12542;50.924;4.516;2024-03-23T03:39:10;13.77;;;5.85;;
24407;SDS011;12542;50.924;4.516;2024-03-23T03:41:36;20.48;;;6.25;;
24407;SDS011;12542;50.924;4.516;2024-03-23T03:44:01;18.17;;;6.07;;
24407;SDS011;12542;50.924;4.516;2024-03-23T03:46:27;18.08;;;5.65;;
24407;SDS011;12542;50.924;4.516;2024-03-23T03:48:56;17.42;;;5.47;;
24407;SDS011;12542;50.924;4.516;2024-03-23T03:51:22;18.50;;;5.35;;
24407;SDS011;12542;50.924;4.516;2024-03-23T03:53:48;18.83;;;5.82;;
24407;SDS011;12542;50.924;4.516;2024-03-23T03:56:13;21.48;;;5.70;;
24407;SDS011;12542;50.924;4.516;2024-03-23T03:58:39;12.80;;;4.88;;
24407;SDS011;12542;50.924;4.516;2024-03-23T04:01:07;16.23;;;5.43;;
24407;SDS011;12542;50.924;4.516;2024-03-23T04:03:34;12.38;;;5.20;;
24407;SDS011;12542;50.924;4.516;2024-03-23T04:05:59;19.08;;;5.93;;
24407;SDS011;12542;50.924;4.516;2024-03-23T04:08:28;20.13;;;5.65;;
24407;SDS011;12542;50.924;4.516;2024-03-23T04:10:56;12.07;;;4.68;;
24407;SDS011;12542;50.924;4.516;2024-03-23T04:13:21;21.27;;;5.07;;
24407;SDS011;12542;50.924;4.516;2024-03-23T04:15:47;21.58;;;6.10;;
24407;SDS011;12542;50.924;4.516;2024-03-23T04:18:13;15.57;;;6.07;;
24407;SDS011;12542;50.924;4.516;2024-03-23T04:20:39;17.38;;;5.63;;
24407;SDS011;12542;50.924;4.516;2024-03-23T04:23:05;20.40;;;5.63;;
24407;SDS011;12542;50.924;4.516;2024-03-23T04:25:30;27.77;;;6.72;;
24407;SDS011;12542;50.924;4.516;2024-03-23T04:27:56;18.60;;;6.70;;
24407;SDS011;12542;50.924;4.516;2024-03-23T04:30:22;21.35;;;6.68;;
24407;SDS011;12542;50.924;4.516;2024-03-23T04:32:50;19.70;;;6.93;;
24407;SDS011;12542;50.924;4.516;2024-03-23T04:35:15;25.70;;;7.70;;
24407;SDS011;12542;50.924;4.516;2024-03-23T04:37:41;24.88;;;6.75;;
24407;SDS011;12542;50.924;4.516;2024-03-23T04:40:07;15.93;;;6.45;;
24407;SDS011;12542;50.924;4.516;2024-03-23T04:42:33;16.30;;;6.57;;
24407;SDS011;12542;50.924;4.516;2024-03-23T04:44:59;17.20;;;6.35;;
24407;SDS011;12542;50.924;4.516;2024-03-23T04:47:25;20.20;;;6.70;;
24407;SDS011;12542;50.924;4.516;2024-03-23T04:49:53;18.90;;;6.43;;
24407;SDS011;12542;50.924;4.516;2024-03-23T04:52:19;18.30;;;6.05;;
24407;SDS011;12542;50.924;4.516;2024-03-23T04:54:45;20.92;;;7.20;;
24407;SDS011;12542;50.924;4.516;2024-03-23T04:57:13;17.80;;;6.35;;
24407;SDS011;12542;50.924;4.516;2024-03-23T04:59:38;19.77;;;6.00;;
24407;SDS011;12542;50.924;4.516;2024-03-23T05:02:04;17.08;;;5.18;;
24407;SDS011;12542;50.924;4.516;2024-03-23T05:04:30;22.80;;;6.07;;
24407;SDS011;12542;50.924;4.516;2024-03-23T05:06:57;13.68;;;4.93;;
24407;SDS011;12542;50.924;4.516;2024-03-23T05:09:23;19.10;;;5.20;;
24407;SDS011;12542;50.924;4.516;2024-03-23T05:11:54;18.75;;;4.95;;
24407;SDS011;12542;50.924;4.516;2024-03-23T05:14:25;16.27;;;4.55;;
24407;SDS011;12542;50.924;4.516;2024-03-23T05:16:52;19.40;;;4.78;;
24407;SDS011;12542;50.924;4.516;2024-03-23T05:19:18;17.85;;;4.10;;
24407;SDS011;12542;50.924;4.516;2024-03-23T05:21:43;13.60;;;3.78;;
24407;SDS011;12542;50.924;4.516;2024-03-23T05:24:09;18.65;;;4.40;;
24407;SDS011;12542;50.924;4.516;2024-03-23T05:26:35;17.73;;;4.45;;
24407;SDS011;12542;50.924;4.516;2024-03-23T05:29:01;17.60;;;5.22;;
24407;SDS011;12542;50.924;4.516;2024-03-23T05:31:28;17.00;;;4.50;;
24407;SDS011;12542;50.924;4.516;2024-03-23T05:33:55;17.02;;;4.68;;
24407;SDS011;12542;50.924;4.516;2024-03-23T05:36:21;20.58;;;5.60;;
24407;SDS011;12542;50.924;4.516;2024-03-23T05:38:47;16.70;;;4.55;;
24407;SDS011;12542;50.924;4.516;2024-03-23T05:41:13;17.00;;;4.55;;
24407;SDS011;12542;50.924;4.516;2024-03-23T05:43:38;12.50;;;4.50;;
24407;SDS011;12542;50.924;4.516;2024-03-23T05:46:04;15.82;;;4.60;;
24407;SDS011;12542;50.924;4.516;2024-03-23T05:48:30;12.25;;;4.50;;
24407;SDS011;12542;50.924;4.516;2024-03-23T05:50:56;22.08;;;5.45;;
24407;SDS011;12542;50.924;4.516;2024-03-23T05:53:22;19.92;;;5.40;;
24407;SDS011;12542;50.924;4.516;2024-03-23T05:55:49;17.17;;;4.60;;
24407;SDS011;12542;50.924;4.516;2024-03-23T05:58:18;18.05;;;5.70;;
24407;SDS011;12542;50.924;4.516;2024-03-23T06:00:43;15.68;;;5.50;;
24407;SDS011;12542;50.924;4.516;2024-03-23T06:03:09;17.33;;;5.53;;
24407;SDS011;12542;50.924;4.516;2024-03-23T06:05:35;14.90;;;5.28;;
24407;SDS011;12542;50.924;4.516;2024-03-23T06:08:01;13.02;;;4.88;;
24407;SDS011;12542;50.924;4.516;2024-03-23T06:10:27;15.77;;;5.07;;
24407;SDS011;12542;50.924;4.516;2024-03-23T06:12:53;22.38;;;5.20;;
24407;SDS011;12542;50.924;4.516;2024-03-23T06:15:19;17.00;;;4.47;;
24407;SDS011;12542;50.924;4.516;2024-03-23T06:17:45;16.77;;;4.28;;
24407;SDS011;12542;50.924;4.516;2024-03-23T06:20:11;17.73;;;4.30;;
24407;SDS011;12542;50.924;4.516;2024-03-23T06:22:38;13.25;;;4.43;;
24407;SDS011;12542;50.924;4.516;2024-03-23T06:25:04;14.43;;;4.10;;
24407;SDS011;12542;50.924;4.516;2024-03-23T06:27:30;15.82;;;3.80;;
24407;SDS011;12542;50.924;4.516;2024-03-23T06:29:57;15.60;;;3.70;;
24407;SDS011;12542;50.924;4.516;2024-03-23T06:32:23;13.95;;;4.53;;
24407;SDS011;12542;50.924;4.516;2024-03-23T06:34:49;17.17;;;3.08;;
24407;SDS011;12542;50.924;4.516;2024-03-23T06:37:14;14.50;;;3.50;;
24407;SDS011;12542;50.924;4.516;2024-03-23T06:39:40;11.93;;;3.60;;
24407;SDS011;12542;50.924;4.516;2024-03-23T06:42:05;12.38;;;3.20;;
24407;SDS011;12542;50.924;4.516;2024-03-23T06:44:33;8.18;;;2.40;;
24407;SDS011;12542;50.924;4.516;2024-03-23T06:46:58;16.77;;;3.15;;
24407;SDS011;12542;50.924;4.516;2024-03-23T06:49:24;14.85;;;2.78;;
24407;SDS011;12542;50.924;4.516;2024-03-23T06:51:50;13.45;;;3.47;;
24407;SDS011;12542;50.924;4.516;2024-03-23T06:54:19;15.75;;;3.22;;
24407;SDS011;12542;50.924;4.516;2024-03-23T06:56:45;17.45;;;3.03;;
24407;SDS011;12542;50.924;4.516;2024-03-23T06:59:10;18.70;;;3.22;;
24407;SDS011;12542;50.924;4.516;2024-03-23T07:01:36;15.00;;;3.85;;
24407;SDS011;12542;50.924;4.516;2024-03-23T07:04:02;10.05;;;2.65;;
24407;SDS011;12542;50.924;4.516;2024-03-23T07:06:29;10.15;;;2.40;;
24407;SDS011;12542;50.924;4.516;2024-03-23T07:08:55;13.70;;;3.85;;
24407;SDS011;12542;50.924;4.516;2024-03-23T07:11:21;7.72;;;2.05;;
24407;SDS011;12542;50.924;4.516;2024-03-23T07:13:51;14.85;;;2.40;;
24407;SDS011;12542;50.924;4.516;2024-03-23T07:16:17;12.63;;;2.25;;
24407;SDS011;12542;50.924;4.516;2024-03-23T07:18:43;12.73;;;2.67;;
24407;SDS011;12542;50.924;4.516;2024-03-23T07:21:09;9.98;;;2.83;;
24407;SDS011;12542;50.924;4.516;2024-03-23T07:23:35;15.60;;;3.78;;
24407;SDS011;12542;50.924;4.516;2024-03-23T07:26:01;10.93;;;2.33;;
24407;SDS011;12542;50.924;4.516;2024-03-23T07:28:29;10.63;;;2.15;;
24407;SDS011;12542;50.924;4.516;2024-03-23T07:31:03;11.63;;;2.30;;
24407;SDS011;12542;50.924;4.516;2024-03-23T07:33:29;15.23;;;2.30;;
24407;SDS011;12542;50.924;4.516;2024-03-23T07:35:55;9.75;;;2.63;;
24407;SDS011;12542;50.924;4.516;2024-03-23T07:38:21;5.78;;;1.90;;
24407;SDS011;12542;50.924;4.516;2024-03-23T07:40:47;10.73;;;1.95;;
24407;SDS011;12542;50.924;4.516;2024-03-23T07:43:15;9.10;;;2.13;;
24407;SDS011;12542;50.924;4.516;2024-03-23T07:45:40;8.75;;;2.20;;
24407;SDS011;12542;50.924;4.516;2024-03-23T07:48:06;7.00;;;1.90;;
24407;SDS011;12542;50.924;4.516;2024-03-23T07:50:32;8.38;;;1.83;;
24407;SDS011;12542;50.924;4.516;2024-03-23T07:52:57;10.35;;;2.50;;
24407;SDS011;12542;50.924;4.516;2024-03-23T07:55:23;7.72;;;1.85;;
24407;SDS011;12542;50.924;4.516;2024-03-23T07:57:51;8.98;;;2.30;;
24407;SDS011;12542;50.924;4.516;2024-03-23T08:00:18;7.50;;;2.35;;
24407;SDS011;12542;50.924;4.516;2024-03-23T08:02:44;10.93;;;2.58;;
24407;SDS011;12542;50.924;4.516;2024-03-23T08:05:10;8.00;;;3.10;;
24407;SDS011;12542;50.924;4.516;2024-03-23T08:07:35;10.05;;;2.35;;
24407;SDS011;12542;50.924;4.516;2024-03-23T08:10:01;10.05;;;2.75;;
24407;SDS011;12542;50.924;4.516;2024-03-23T08:12:28;11.90;;;2.47;;
24407;SDS011;12542;50.924;4.516;2024-03-23T08:14:54;12.02;;;2.85;;
24407;SDS011;12542;50.924;4.516;2024-03-23T08:17:19;11.75;;;3.10;;
24407;SDS011;12542;50.924;4.516;2024-03-23T08:19:45;11.27;;;2.50;;
24407;SDS011;12542;50.924;4.516;2024-03-23T08:22:11;15.65;;;2.72;;
24407;SDS011;12542;50.924;4.516;2024-03-23T08:24:36;10.60;;;2.53;;
24407;SDS011;12542;50.924;4.516;2024-03-23T08:27:02;10.10;;;2.33;;
24407;SDS011;12542;50.924;4.516;2024-03-23T08:29:29;14.23;;;2.83;;
24407;SDS011;12542;50.924;4.516;2024-03-23T08:31:55;9.13;;;2.03;;
24407;SDS011;12542;50.924;4.516;2024-03-23T08:34:21;15.55;;;2.92;;
24407;SDS011;12542;50.924;4.516;2024-03-23T08:36:47;14.73;;;2.45;;
24407;SDS011;12542;50.924;4.516;2024-03-23T08:39:12;12.30;;;2.72;;
24407;SDS011;12542;50.924;4.516;2024-03-23T08:41:39;7.78;;;2.22;;
24407;SDS011;12542;50.924;4.516;2024-03-23T08:44:04;13.50;;;2.40;;
24407;SDS011;12542;50.924;4.516;2024-03-23T08:46:30;12.70;;;2.25;;
24407;SDS011;12542;50.924;4.516;2024-03-23T08:48:56;14.75;;;3.10;;
24407;SDS011;12542;50.924;4.516;2024-03-23T08:51:21;10.25;;;2.30;;
24407;SDS011;12542;50.924;4.516;2024-03-23T08:53:47;13.13;;;2.80;;
24407;SDS011;12542;50.924;4.516;2024-03-23T08:56:13;11.82;;;4.00;;
24407;SDS011;12542;50.924;4.516;2024-03-23T08:58:38;11.95;;;2.35;;
24407;SDS011;12542;50.924;4.516;2024-03-23T09:01:11;9.85;;;2.22;;
24407;SDS011;12542;50.924;4.516;2024-03-23T09:03:38;12.55;;;2.15;;
24407;SDS011;12542;50.924;4.516;2024-03-23T09:06:11;15.85;;;2.15;;
24407;SDS011;12542;50.924;4.516;2024-03-23T09:08:38;10.48;;;2.03;;
24407;SDS011;12542;50.924;4.516;2024-03-23T09:11:09;8.50;;;1.75;;
24407;SDS011;12542;50.924;4.516;2024-03-23T09:13:37;11.38;;;2.03;;
24407;SDS011;12542;50.924;4.516;2024-03-23T09:16:03;12.48;;;2.40;;
24407;SDS011;12542;50.924;4.516;2024-03-23T09:18:31;9.52;;;2.30;;
24407;SDS011;12542;50.924;4.516;2024-03-23T09:20:58;5.57;;;1.70;;
24407;SDS011;12542;50.924;4.516;2024-03-23T09:23:25;10.32;;;2.00;;
24407;SDS011;12542;50.924;4.516;2024-03-23T09:25:51;9.55;;;2.08;;
24407;SDS011;12542;50.924;4.516;2024-03-23T09:28:16;13.45;;;1.80;;
24407;SDS011;12542;50.924;4.516;2024-03-23T09:30:42;6.63;;;1.35;;
24407;SDS011;12542;50.924;4.516;2024-03-23T09:33:08;15.55;;;2.90;;
24407;SDS011;12542;50.924;4.516;2024-03-23T09:35:38;7.72;;;1.75;;
24407;SDS011;12542;50.924;4.516;2024-03-23T09:38:04;9.07;;;1.67;;
24407;SDS011;12542;50.924;4.516;2024-03-23T09:40:29;7.25;;;1.50;;
24407;SDS011;12542;50.924;4.516;2024-03-23T09:42:56;8.43;;;1.48;;
24407;SDS011;12542;50.924;4.516;2024-03-23T09:45:26;8.05;;;1.88;;
24407;SDS011;12542;50.924;4.516;2024-03-23T09:47:54;10.55;;;2.33;;
24407;SDS011;12542;50.924;4.516;2024-03-23T09:50:21;9.77;;;2.58;;
24407;SDS011;12542;50.924;4.516;2024-03-23T09:52:47;10.70;;;2.30;;
24407;SDS011;12542;50.924;4.516;2024-03-23T09:55:13;6.38;;;1.70;;
24407;SDS011;12542;50.924;4.516;2024-03-23T09:57:41;11.35;;;1.88;;
24407;SDS011;12542;50.924;4.516;2024-03-23T10:00:07;7.13;;;2.05;;
24407;SDS011;12542;50.924;4.516;2024-03-23T10:02:34;9.27;;;1.67;;
24407;SDS011;12542;50.924;4.516;2024-03-23T10:05:00;9.02;;;2.05;;
24407;SDS011;12542;50.924;4.516;2024-03-23T10:07:26;8.80;;;2.10;;
24407;SDS011;12542;50.924;4.516;2024-03-23T10:09:53;5.78;;;1.73;;
24407;SDS011;12542;50.924;4.516;2024-03-23T10:12:19;7.07;;;2.05;;
24407;SDS011;12542;50.924;4.516;2024-03-23T10:14:45;7.30;;;2.30;;
24407;SDS011;12542;50.924;4.516;2024-03-23T10:17:12;8.63;;;2.13;;
24407;SDS011;12542;50.924;4.516;2024-03-23T10:22:13;9.48;;;2.95;;
24407;SDS011;12542;50.924;4.516;2024-03-23T10:24:40;13.18;;;2.63;;
24407;SDS011;12542;50.924;4.516;2024-03-23T10:27:09;6.80;;;1.63;;
24407;SDS011;12542;50.924;4.516;2024-03-23T10:29:34;7.88;;;2.05;;
24407;SDS011;12542;50.924;4.516;2024-03-23T10:32:10;10.15;;;2.13;;
24407;SDS011;12542;50.924;4.516;2024-03-23T10:34:39;9.38;;;2.38;;
24407;SDS011;12542;50.924;4.516;2024-03-23T10:37:05;8.90;;;2.38;;
24407;SDS011;12542;50.924;4.516;2024-03-23T10:39:35;7.32;;;2.38;;
24407;SDS011;12542;50.924;4.516;2024-03-23T10:42:06;9.18;;;1.92;;
24407;SDS011;12542;50.924;4.516;2024-03-23T10:44:33;8.88;;;2.33;;
24407;SDS011;12542;50.924;4.516;2024-03-23T10:46:59;13.00;;;2.65;;
24407;SDS011;12542;50.924;4.516;2024-03-23T10:49:29;12.02;;;2.58;;
24407;SDS011;12542;50.924;4.516;2024-03-23T10:52:04;6.72;;;2.00;;
24407;SDS011;12542;50.924;4.516;2024-03-23T10:54:31;6.85;;;2.47;;
24407;SDS011;12542;50.924;4.516;2024-03-23T10:57:11;6.43;;;1.70;;
24407;SDS011;12542;50.924;4.516;2024-03-23T10:59:39;6.05;;;1.73;;
24407;SDS011;12542;50.924;4.516;2024-03-23T11:02:05;7.25;;;1.40;;
24407;SDS011;12542;50.924;4.516;2024-03-23T11:04:43;4.18;;;1.52;;
24407;SDS011;12542;50.924;4.516;2024-03-23T11:10:27;5.35;;;1.90;;
24407;SDS011;12542;50.924;4.516;2024-03-23T11:12:58;2.75;;;1.20;;
24407;SDS011;12542;50.924;4.516;2024-03-23T11:15:43;6.15;;;1.83;;
24407;SDS011;12542;50.924;4.516;2024-03-23T11:18:09;7.15;;;1.80;;
24407;SDS011;12542;50.924;4.516;2024-03-23T11:20:36;8.98;;;1.88;;
24407;SDS011;12542;50.924;4.516;2024-03-23T11:23:02;6.68;;;1.90;;
24407;SDS011;12542;50.924;4.516;2024-03-23T11:25:28;4.47;;;1.20;;
24407;SDS011;12542;50.924;4.516;2024-03-23T11:27:55;3.65;;;1.10;;
24407;SDS011;12542;50.924;4.516;2024-03-23T11:30:25;4.43;;;1.02;;
24407;SDS011;12542;50.924;4.516;2024-03-23T11:32:56;7.90;;;1.30;;
24407;SDS011;12542;50.924;4.516;2024-03-23T11:40:45;4.20;;;0.93;;
24407;SDS011;12542;50.924;4.516;2024-03-23T11:43:21;3.92;;;1.05;;
24407;SDS011;12542;50.924;4.516;2024-03-23T11:45:48;5.30;;;1.02;;
24407;SDS011;12542;50.924;4.516;2024-03-23T11:48:20;3.65;;;0.93;;
24407;SDS011;12542;50.924;4.516;2024-03-23T11:50:50;3.78;;;0.80;;
24407;SDS011;12542;50.924;4.516;2024-03-23T11:55:55;3.88;;;1.05;;
24407;SDS011;12542;50.924;4.516;2024-03-23T11:58:23;5.77;;;0.97;;
24407;SDS011;12542;50.924;4.516;2024-03-23T12:01:00;5.70;;;1.02;;
24407;SDS011;12542;50.924;4.516;2024-03-23T12:03:27;6.30;;;1.13;;
24407;SDS011;12542;50.924;4.516;2024-03-23T12:05:55;4.70;;;0.85;;
24407;SDS011;12542;50.924;4.516;2024-03-23T12:08:29;5.60;;;1.02;;
24407;SDS011;12542;50.924;4.516;2024-03-23T12:11:15;5.18;;;1.20;;
24407;SDS011;12542;50.924;4.516;2024-03-23T12:13:42;5.45;;;0.90;;
24407;SDS011;12542;50.924;4.516;2024-03-23T12:18:43;9.38;;;1.17;;
24407;SDS011;12542;50.924;4.516;2024-03-23T12:21:09;8.20;;;1.95;;
24407;SDS011;12542;50.924;4.516;2024-03-23T12:23:35;5.88;;;1.02;;
24407;SDS011;12542;50.924;4.516;2024-03-23T12:26:03;6.25;;;0.95;;
24407;SDS011;12542;50.924;4.516;2024-03-23T12:28:29;6.93;;;1.15;;
24407;SDS011;12542;50.924;4.516;2024-03-23T12:30:55;4.10;;;0.90;;
24407;SDS011;12542;50.924;4.516;2024-03-23T12:33:21;2.22;;;0.50;;
24407;SDS011;12542;50.924;4.516;2024-03-23T12:35:50;4.18;;;0.90;;
24407;SDS011;12542;50.924;4.516;2024-03-23T12:38:16;4.40;;;0.60;;
24407;SDS011;12542;50.924;4.516;2024-03-23T12:40:42;2.88;;;0.70;;
24407;SDS011;12542;50.924;4.516;2024-03-23T12:43:13;4.38;;;0.82;;
24407;SDS011;12542;50.924;4.516;2024-03-23T12:45:38;6.00;;;0.90;;
24407;SDS011;12542;50.924;4.516;2024-03-23T12:48:04;1.67;;;0.43;;
24407;SDS011;12542;50.924;4.516;2024-03-23T12:50:30;6.97;;;1.00;;
24407;SDS011;12542;50.924;4.516;2024-03-23T12:52:56;2.88;;;0.88;;
24407;SDS011;12542;50.924;4.516;2024-03-23T12:55:21;4.60;;;0.85;;
24407;SDS011;12542;50.924;4.516;2024-03-23T12:57:47;3.85;;;0.80;;
24407;SDS011;12542;50.924;4.516;2024-03-23T13:00:15;5.80;;;1.10;;
24407;SDS011;12542;50.924;4.516;2024-03-23T13:02:42;6.88;;;1.40;;
24407;SDS011;12542;50.924;4.516;2024-03-23T13:05:08;3.95;;;1.00;;
24407;SDS011;12542;50.924;4.516;2024-03-23T13:07:34;4.95;;;1.10;;
24407;SDS011;12542;50.924;4.516;2024-03-23T13:10:00;7.53;;;1.17;;
24407;SDS011;12542;50.924;4.516;2024-03-23T13:12:27;5.55;;;1.30;;
24407;SDS011;12542;50.924;4.516;2024-03-23T13:14:52;11.20;;;1.40;;
24407;SDS011;12542;50.924;4.516;2024-03-23T13:17:18;3.80;;;0.90;;
24407;SDS011;12542;50.924;4.516;2024-03-23T13:19:44;4.40;;;0.80;;
24407;SDS011;12542;50.924;4.516;2024-03-23T13:22:09;8.13;;;1.10;;
24407;SDS011;12542;50.924;4.516;2024-03-23T13:24:36;8.63;;;0.95;;
24407;SDS011;12542;50.924;4.516;2024-03-23T13:27:02;4.55;;;1.08;;
24407;SDS011;12542;50.924;4.516;2024-03-23T13:29:29;6.18;;;1.13;;
24407;SDS011;12542;50.924;4.516;2024-03-23T13:31:55;6.78;;;1.10;;
24407;SDS011;12542;50.924;4.516;2024-03-23T13:34:20;3.40;;;1.00;;
24407;SDS011;12542;50.924;4.516;2024-03-23T13:36:46;3.53;;;0.90;;
24407;SDS011;12542;50.924;4.516;2024-03-23T13:39:12;6.88;;;1.25;;
24407;SDS011;12542;50.924;4.516;2024-03-23T13:41:44;10.18;;;2.45;;
24407;SDS011;12542;50.924;4.516;2024-03-23T13:44:13;8.85;;;2.03;;
24407;SDS011;12542;50.924;4.516;2024-03-23T13:46:42;8.75;;;1.35;;
24407;SDS011;12542;50.924;4.516;2024-03-23T13:49:27;6.45;;;1.35;;
24407;SDS011;12542;50.924;4.516;2024-03-23T13:51:54;6.65;;;1.50;;
24407;SDS011;12542;50.924;4.516;2024-03-23T13:54:22;7.75;;;1.88;;
24407;SDS011;12542;50.924;4.516;2024-03-23T13:56:49;7.03;;;1.35;;
24407;SDS011;12542;50.924;4.516;2024-03-23T13:59:15;5.50;;;1.20;;
24407;SDS011;12542;50.924;4.516;2024-03-23T14:01:42;7.32;;;1.27;;
24407;SDS011;12542;50.924;4.516;2024-03-23T14:04:08;6.75;;;1.50;;
24407;SDS011;12542;50.924;4.516;2024-03-23T14:06:34;4.55;;;1.10;;
24407;SDS011;12542;50.924;4.516;2024-03-23T14:09:00;6.85;;;1.13;;
24407;SDS011;12542;50.924;4.516;2024-03-23T14:11:26;6.72;;;1.27;;
24407;SDS011;12542;50.924;4.516;2024-03-23T14:13:53;6.05;;;1.30;;
24407;SDS011;12542;50.924;4.516;2024-03-23T14:16:21;8.43;;;1.30;;
24407;SDS011;12542;50.924;4.516;2024-03-23T14:18:47;5.28;;;1.13;;
24407;SDS011;12542;50.924;4.516;2024-03-23T14:21:12;2.95;;;1.08;;
24407;SDS011;12542;50.924;4.516;2024-03-23T14:23:38;7.78;;;1.20;;
24407;SDS011;12542;50.924;4.516;2024-03-23T14:26:05;9.65;;;1.20;;
24407;SDS011;12542;50.924;4.516;2024-03-23T14:28:31;6.68;;;1.38;;
24407;SDS011;12542;50.924;4.516;2024-03-23T14:30:57;9.82;;;1.85;;
24407;SDS011;12542;50.924;4.516;2024-03-23T14:33:23;4.07;;;1.10;;
24407;SDS011;12542;50.924;4.516;2024-03-23T14:35:55;7.10;;;1.75;;
24407;SDS011;12542;50.924;4.516;2024-03-23T14:38:24;6.20;;;1.50;;
24407;SDS011;12542;50.924;4.516;2024-03-23T14:40:50;4.85;;;1.75;;
24407;SDS011;12542;50.924;4.516;2024-03-23T14:43:19;8.82;;;1.88;;
24407;SDS011;12542;50.924;4.516;2024-03-23T14:48:30;10.95;;;1.70;;
24407;SDS011;12542;50.924;4.516;2024-03-23T14:50:56;9.93;;;2.22;;
24407;SDS011;12542;50.924;4.516;2024-03-23T14:53:22;7.78;;;1.60;;
24407;SDS011;12542;50.924;4.516;2024-03-23T14:55:48;9.85;;;1.85;;
24407;SDS011;12542;50.924;4.516;2024-03-23T14:58:14;7.88;;;1.63;;
24407;SDS011;12542;50.924;4.516;2024-03-23T15:00:40;5.47;;;1.33;;
24407;SDS011;12542;50.924;4.516;2024-03-23T15:03:05;9.52;;;1.50;;
24407;SDS011;12542;50.924;4.516;2024-03-23T15:05:31;8.43;;;1.50;;
24407;SDS011;12542;50.924;4.516;2024-03-23T15:07:56;8.20;;;1.40;;
24407;SDS011;12542;50.924;4.516;2024-03-23T15:10:23;9.23;;;1.45;;
24407;SDS011;12542;50.924;4.516;2024-03-23T15:12:49;4.43;;;1.42;;
24407;SDS011;12542;50.924;4.516;2024-03-23T15:15:14;4.32;;;1.02;;
24407;SDS011;12542;50.924;4.516;2024-03-23T15:17:40;4.03;;;1.20;;
24407;SDS011;12542;50.924;4.516;2024-03-23T15:20:09;7.32;;;1.50;;
24407;SDS011;12542;50.924;4.516;2024-03-23T15:22:36;6.97;;;1.00;;
24407;SDS011;12542;50.924;4.516;2024-03-23T15:25:02;7.00;;;1.80;;
24407;SDS011;12542;50.924;4.516;2024-03-23T15:27:28;9.65;;;1.10;;
24407;SDS011;12542;50.924;4.516;2024-03-23T15:29:55;4.95;;;1.20;;
24407;SDS011;12542;50.924;4.516;2024-03-23T15:32:22;4.93;;;1.42;;
24407;SDS011;12542;50.924;4.516;2024-03-23T15:34:48;7.22;;;1.17;;
24407;SDS011;12542;50.924;4.516;2024-03-23T15:37:14;5.05;;;1.10;;
24407;SDS011;12542;50.924;4.516;2024-03-23T15:39:40;4.57;;;1.10;;
24407;SDS011;12542;50.924;4.516;2024-03-23T15:42:09;5.78;;;1.58;;
24407;SDS011;12542;50.924;4.516;2024-03-23T15:44:35;7.03;;;1.88;;
24407;SDS011;12542;50.924;4.516;2024-03-23T15:47:01;6.35;;;1.05;;
24407;SDS011;12542;50.924;4.516;2024-03-23T15:49:27;4.90;;;0.95;;